Airport View

Enter AWOS ICAO identifier for current METAR.

ex. KFNL

KHOB 040555Z AUTO 12009KT 10SM CLR 24/16 A3013 RMK AO2

4 Aug 2020 05:55

Frequency: 119.75

Phone: 575-393-8418

Other Area AWOS: KGNC - KE11 - KINK - KCNM

TAF KHOB 032320Z 0400/0424 16009KT P6SM FEW080